首页
METAR-TAF:

METAR-TAF

机场 :

伯靈頓, 佛蒙特州, 美国

纬度: 44-28-05N, 经度: 073-09-01W, 海拔: 101米

当前天气观测

该预报发布于31分钟前的16:54 UTC
风速5节,风向北转东北
温度 24°C
湿度 44%
气压 1018 hPa
能見度: 16.1公里
少量云层高于3400英尺
少量云层高于5000英尺

METAR: KBTV 211654Z 02005KT 10SM FEW034 FEW050 24/11 A3005 RMK AO2 SLP175 T02440111

时间: 13:25 (17:25 UTC)

预报

该预报发布于6小时和2分钟前的11:23 UTC
预报有效从21日的 12点(UTC)到 22日的 12点(UTC)
风速5节,风向
能見度: 10公里
散云层高于2500英尺
阴天层高于4000英尺
附近有阵雨
从 21日的 1600点(UTC)
风速7节,风向北转西北
能見度: 10公里
少量云层高于15000英尺

TAF: KBTV 211123Z 2112/2212 35005KT P6SM VCSH SCT025 OVC040 FM211600 34007KT P6SM FEW150

超过4000个机场的气象观测和天气预报(METAR&TAF报告)。

可查询的气象台以黄色和红色小点在地图上表示。

将鼠标移到小点上方,可查看气象台名称。

然后点击查看天气观测和预报。

如需切换地图:点击带黑十字的绿色按钮放大地图;点击带横线的绿色按钮缩小地图;或者点击绿色箭头查看邻近地区的地图。


METAR-TAF: